Terminal Aerodrome Forecast
Issued by NWS Omaha/Valley, NE

Home | Current Version | Previous Version | Graphics & Text | Print | Product List | Glossary On
Versions: 1 2 3 4 5 6 7 8 9 10 11 12 13 14 15 16 17 18 19 20 21 22 23 24 25 26
000
FTUS43 KOAX 210520
TAFOFK
TAF
KOFK 210520Z 2106/2206 10005KT P6SM OVC090
     FM210900 08007KT P6SM OVC060
     FM211700 11010G16KT P6SM OVC050
     FM220000 03007KT P6SM BKN100=

USA.gov is the U.S. government's official web portal to all federal, state and local government web resources and services.